sensor_id;sensor_type;location;lat;lon;timestamp;P1;durP1;ratioP1;P2;durP2;ratioP2
21272;SDS011;36726;52.328;10.552;2022-07-03T00:00:03;2.42;;;0.95;;
21272;SDS011;36726;52.328;10.552;2022-07-03T00:02:36;1.33;;;0.80;;
21272;SDS011;36726;52.328;10.552;2022-07-03T00:05:03;0.88;;;0.80;;
21272;SDS011;36726;52.328;10.552;2022-07-03T00:07:31;1.10;;;1.00;;
21272;SDS011;36726;52.328;10.552;2022-07-03T00:09:57;2.40;;;0.90;;
21272;SDS011;36726;52.328;10.552;2022-07-03T00:12:24;0.90;;;0.75;;
21272;SDS011;36726;52.328;10.552;2022-07-03T00:14:51;0.98;;;0.60;;
21272;SDS011;36726;52.328;10.552;2022-07-03T00:17:17;0.80;;;0.60;;
21272;SDS011;36726;52.328;10.552;2022-07-03T00:19:44;1.58;;;0.80;;
21272;SDS011;36726;52.328;10.552;2022-07-03T00:22:11;0.80;;;0.80;;
21272;SDS011;36726;52.328;10.552;2022-07-03T00:24:52;1.50;;;0.90;;
21272;SDS011;36726;52.328;10.552;2022-07-03T00:27:20;1.27;;;1.00;;
21272;SDS011;36726;52.328;10.552;2022-07-03T00:29:50;1.20;;;0.90;;
21272;SDS011;36726;52.328;10.552;2022-07-03T00:32:21;1.10;;;0.75;;
21272;SDS011;36726;52.328;10.552;2022-07-03T00:34:56;1.00;;;0.80;;
21272;SDS011;36726;52.328;10.552;2022-07-03T00:37:25;1.10;;;0.80;;
21272;SDS011;36726;52.328;10.552;2022-07-03T00:39:52;1.83;;;0.85;;
21272;SDS011;36726;52.328;10.552;2022-07-03T00:42:18;1.75;;;0.85;;
21272;SDS011;36726;52.328;10.552;2022-07-03T00:44:49;1.00;;;0.90;;
21272;SDS011;36726;52.328;10.552;2022-07-03T00:47:18;1.23;;;0.80;;
21272;SDS011;36726;52.328;10.552;2022-07-03T00:49:49;3.60;;;1.20;;
21272;SDS011;36726;52.328;10.552;2022-07-03T00:52:20;2.53;;;1.02;;
21272;SDS011;36726;52.328;10.552;2022-07-03T00:54:54;2.35;;;1.23;;
21272;SDS011;36726;52.328;10.552;2022-07-03T00:57:23;1.38;;;1.00;;
21272;SDS011;36726;52.328;10.552;2022-07-03T00:59:51;1.55;;;1.35;;
21272;SDS011;36726;52.328;10.552;2022-07-03T01:10:29;1.20;;;1.02;;
21272;SDS011;36726;52.328;10.552;2022-07-03T01:16:06;1.45;;;1.13;;
21272;SDS011;36726;52.328;10.552;2022-07-03T01:19:01;2.35;;;1.15;;
21272;SDS011;36726;52.328;10.552;2022-07-03T01:24:28;3.22;;;1.20;;
21272;SDS011;36726;52.328;10.552;2022-07-03T01:27:02;2.00;;;1.10;;
21272;SDS011;36726;52.328;10.552;2022-07-03T01:29:35;1.48;;;0.77;;
21272;SDS011;36726;52.328;10.552;2022-07-03T01:32:10;1.95;;;1.20;;
21272;SDS011;36726;52.328;10.552;2022-07-03T01:34:39;1.35;;;1.00;;
21272;SDS011;36726;52.328;10.552;2022-07-03T01:37:10;1.17;;;1.08;;
21272;SDS011;36726;52.328;10.552;2022-07-03T01:39:41;2.42;;;1.10;;
21272;SDS011;36726;52.328;10.552;2022-07-03T01:42:22;1.48;;;0.98;;
21272;SDS011;36726;52.328;10.552;2022-07-03T01:44:51;2.40;;;1.00;;
21272;SDS011;36726;52.328;10.552;2022-07-03T01:47:19;1.65;;;1.10;;
21272;SDS011;36726;52.328;10.552;2022-07-03T01:49:53;1.65;;;1.10;;
21272;SDS011;36726;52.328;10.552;2022-07-03T01:52:21;1.42;;;1.10;;
21272;SDS011;36726;52.328;10.552;2022-07-03T01:55:08;1.33;;;1.23;;
21272;SDS011;36726;52.328;10.552;2022-07-03T01:57:48;1.92;;;1.38;;
21272;SDS011;36726;52.328;10.552;2022-07-03T02:00:17;1.55;;;1.27;;
21272;SDS011;36726;52.328;10.552;2022-07-03T02:10:29;2.83;;;1.20;;
21272;SDS011;36726;52.328;10.552;2022-07-03T02:13:01;2.35;;;1.20;;
21272;SDS011;36726;52.328;10.552;2022-07-03T02:15:34;1.42;;;1.17;;
21272;SDS011;36726;52.328;10.552;2022-07-03T02:18:08;5.75;;;1.45;;
21272;SDS011;36726;52.328;10.552;2022-07-03T02:20:39;1.73;;;1.30;;
21272;SDS011;36726;52.328;10.552;2022-07-03T02:23:12;1.58;;;1.40;;
21272;SDS011;36726;52.328;10.552;2022-07-03T02:25:45;2.08;;;1.50;;
21272;SDS011;36726;52.328;10.552;2022-07-03T02:28:21;1.50;;;1.25;;
21272;SDS011;36726;52.328;10.552;2022-07-03T02:30:57;2.25;;;1.30;;
21272;SDS011;36726;52.328;10.552;2022-07-03T02:33:29;1.65;;;1.33;;
21272;SDS011;36726;52.328;10.552;2022-07-03T02:35:57;2.00;;;1.30;;
21272;SDS011;36726;52.328;10.552;2022-07-03T02:38:24;1.75;;;1.42;;
21272;SDS011;36726;52.328;10.552;2022-07-03T02:51:46;2.47;;;1.48;;
21272;SDS011;36726;52.328;10.552;2022-07-03T02:54:29;2.58;;;1.40;;
21272;SDS011;36726;52.328;10.552;2022-07-03T02:57:08;2.95;;;1.40;;
21272;SDS011;36726;52.328;10.552;2022-07-03T02:59:39;2.00;;;1.67;;
21272;SDS011;36726;52.328;10.552;2022-07-03T03:02:22;1.88;;;1.48;;
21272;SDS011;36726;52.328;10.552;2022-07-03T03:05:07;2.53;;;1.45;;
21272;SDS011;36726;52.328;10.552;2022-07-03T03:10:43;4.93;;;1.52;;
21272;SDS011;36726;52.328;10.552;2022-07-03T03:13:11;1.55;;;1.40;;
21272;SDS011;36726;52.328;10.552;2022-07-03T03:15:42;2.75;;;1.38;;
21272;SDS011;36726;52.328;10.552;2022-07-03T03:18:13;2.92;;;1.90;;
21272;SDS011;36726;52.328;10.552;2022-07-03T03:20:47;3.00;;;1.77;;
21272;SDS011;36726;52.328;10.552;2022-07-03T03:23:17;2.15;;;1.60;;
21272;SDS011;36726;52.328;10.552;2022-07-03T03:25:50;1.98;;;1.50;;
21272;SDS011;36726;52.328;10.552;2022-07-03T03:28:18;2.72;;;1.58;;
21272;SDS011;36726;52.328;10.552;2022-07-03T03:30:46;2.15;;;1.40;;
21272;SDS011;36726;52.328;10.552;2022-07-03T03:33:13;3.50;;;1.80;;
21272;SDS011;36726;52.328;10.552;2022-07-03T03:35:40;2.15;;;1.60;;
21272;SDS011;36726;52.328;10.552;2022-07-03T03:38:07;1.58;;;1.25;;
21272;SDS011;36726;52.328;10.552;2022-07-03T03:40:34;2.70;;;1.40;;
21272;SDS011;36726;52.328;10.552;2022-07-03T03:43:01;2.10;;;1.38;;
21272;SDS011;36726;52.328;10.552;2022-07-03T03:45:29;2.05;;;1.70;;
21272;SDS011;36726;52.328;10.552;2022-07-03T03:47:56;1.83;;;1.50;;
21272;SDS011;36726;52.328;10.552;2022-07-03T03:50:25;1.88;;;1.60;;
21272;SDS011;36726;52.328;10.552;2022-07-03T03:52:51;2.65;;;1.92;;
21272;SDS011;36726;52.328;10.552;2022-07-03T03:55:18;4.35;;;1.60;;
21272;SDS011;36726;52.328;10.552;2022-07-03T03:57:45;1.92;;;1.38;;
21272;SDS011;36726;52.328;10.552;2022-07-03T04:00:12;2.90;;;1.60;;
21272;SDS011;36726;52.328;10.552;2022-07-03T04:02:39;2.20;;;1.73;;
21272;SDS011;36726;52.328;10.552;2022-07-03T04:05:05;2.35;;;1.80;;
21272;SDS011;36726;52.328;10.552;2022-07-03T04:07:32;1.80;;;1.70;;
21272;SDS011;36726;52.328;10.552;2022-07-03T04:09:59;2.72;;;1.70;;
21272;SDS011;36726;52.328;10.552;2022-07-03T04:12:26;3.38;;;1.85;;
21272;SDS011;36726;52.328;10.552;2022-07-03T04:14:52;2.15;;;1.92;;
21272;SDS011;36726;52.328;10.552;2022-07-03T04:17:19;2.92;;;1.92;;
21272;SDS011;36726;52.328;10.552;2022-07-03T04:19:45;1.77;;;1.67;;
21272;SDS011;36726;52.328;10.552;2022-07-03T04:22:12;2.28;;;1.77;;
21272;SDS011;36726;52.328;10.552;2022-07-03T04:24:39;2.40;;;1.77;;
21272;SDS011;36726;52.328;10.552;2022-07-03T04:27:05;1.60;;;1.48;;
21272;SDS011;36726;52.328;10.552;2022-07-03T04:29:32;2.53;;;1.88;;
21272;SDS011;36726;52.328;10.552;2022-07-03T04:31:59;4.78;;;1.92;;
21272;SDS011;36726;52.328;10.552;2022-07-03T04:34:25;1.88;;;1.50;;
21272;SDS011;36726;52.328;10.552;2022-07-03T04:36:52;2.40;;;1.60;;
21272;SDS011;36726;52.328;10.552;2022-07-03T04:39:19;3.00;;;1.73;;
21272;SDS011;36726;52.328;10.552;2022-07-03T04:41:46;4.28;;;1.88;;
21272;SDS011;36726;52.328;10.552;2022-07-03T04:44:12;2.00;;;1.55;;
21272;SDS011;36726;52.328;10.552;2022-07-03T04:46:39;2.17;;;1.63;;
21272;SDS011;36726;52.328;10.552;2022-07-03T04:49:06;2.38;;;1.80;;
21272;SDS011;36726;52.328;10.552;2022-07-03T04:51:33;1.50;;;1.40;;
21272;SDS011;36726;52.328;10.552;2022-07-03T04:53:59;3.42;;;1.73;;
21272;SDS011;36726;52.328;10.552;2022-07-03T04:56:26;1.60;;;1.38;;
21272;SDS011;36726;52.328;10.552;2022-07-03T04:58:52;2.63;;;1.80;;
21272;SDS011;36726;52.328;10.552;2022-07-03T05:01:19;2.97;;;1.55;;
21272;SDS011;36726;52.328;10.552;2022-07-03T05:03:46;2.08;;;1.67;;
21272;SDS011;36726;52.328;10.552;2022-07-03T05:06:16;5.50;;;1.60;;
21272;SDS011;36726;52.328;10.552;2022-07-03T05:08:46;2.90;;;1.92;;
21272;SDS011;36726;52.328;10.552;2022-07-03T05:11:14;2.53;;;1.52;;
21272;SDS011;36726;52.328;10.552;2022-07-03T05:13:40;2.20;;;1.55;;
21272;SDS011;36726;52.328;10.552;2022-07-03T05:16:07;3.53;;;1.88;;
21272;SDS011;36726;52.328;10.552;2022-07-03T05:18:33;1.98;;;1.80;;
21272;SDS011;36726;52.328;10.552;2022-07-03T05:21:01;3.25;;;1.35;;
21272;SDS011;36726;52.328;10.552;2022-07-03T05:23:28;2.58;;;1.67;;
21272;SDS011;36726;52.328;10.552;2022-07-03T05:25:55;3.47;;;1.75;;
21272;SDS011;36726;52.328;10.552;2022-07-03T05:28:21;1.83;;;1.48;;
21272;SDS011;36726;52.328;10.552;2022-07-03T05:30:48;1.73;;;1.45;;
21272;SDS011;36726;52.328;10.552;2022-07-03T05:33:15;2.55;;;1.65;;
21272;SDS011;36726;52.328;10.552;2022-07-03T05:35:41;2.28;;;1.73;;
21272;SDS011;36726;52.328;10.552;2022-07-03T05:38:08;1.75;;;1.58;;
21272;SDS011;36726;52.328;10.552;2022-07-03T05:40:35;2.17;;;1.55;;
21272;SDS011;36726;52.328;10.552;2022-07-03T05:43:01;1.30;;;1.13;;
21272;SDS011;36726;52.328;10.552;2022-07-03T05:45:28;2.15;;;1.30;;
21272;SDS011;36726;52.328;10.552;2022-07-03T05:47:54;2.03;;;1.60;;
21272;SDS011;36726;52.328;10.552;2022-07-03T05:50:21;1.90;;;1.60;;
21272;SDS011;36726;52.328;10.552;2022-07-03T05:52:47;2.38;;;1.60;;
21272;SDS011;36726;52.328;10.552;2022-07-03T05:55:14;2.88;;;1.60;;
21272;SDS011;36726;52.328;10.552;2022-07-03T05:57:40;2.83;;;1.70;;
21272;SDS011;36726;52.328;10.552;2022-07-03T06:00:07;2.00;;;1.50;;
21272;SDS011;36726;52.328;10.552;2022-07-03T06:02:34;1.63;;;1.52;;
21272;SDS011;36726;52.328;10.552;2022-07-03T06:05:01;2.10;;;1.38;;
21272;SDS011;36726;52.328;10.552;2022-07-03T06:07:27;1.55;;;1.38;;
21272;SDS011;36726;52.328;10.552;2022-07-03T06:09:54;2.35;;;1.30;;
21272;SDS011;36726;52.328;10.552;2022-07-03T06:12:21;1.85;;;1.52;;
21272;SDS011;36726;52.328;10.552;2022-07-03T06:14:47;1.95;;;1.20;;
21272;SDS011;36726;52.328;10.552;2022-07-03T06:17:14;1.42;;;1.25;;
21272;SDS011;36726;52.328;10.552;2022-07-03T06:19:42;1.60;;;1.38;;
21272;SDS011;36726;52.328;10.552;2022-07-03T06:22:09;6.35;;;1.50;;
21272;SDS011;36726;52.328;10.552;2022-07-03T06:24:36;3.08;;;1.40;;
21272;SDS011;36726;52.328;10.552;2022-07-03T06:27:03;1.33;;;1.17;;
21272;SDS011;36726;52.328;10.552;2022-07-03T06:29:30;1.88;;;1.30;;
21272;SDS011;36726;52.328;10.552;2022-07-03T06:31:56;4.55;;;1.45;;
21272;SDS011;36726;52.328;10.552;2022-07-03T06:34:23;1.33;;;1.23;;
21272;SDS011;36726;52.328;10.552;2022-07-03T06:36:50;1.70;;;1.45;;
21272;SDS011;36726;52.328;10.552;2022-07-03T06:39:17;1.90;;;1.45;;
21272;SDS011;36726;52.328;10.552;2022-07-03T06:41:43;1.65;;;1.20;;
21272;SDS011;36726;52.328;10.552;2022-07-03T06:44:10;1.55;;;0.90;;
21272;SDS011;36726;52.328;10.552;2022-07-03T06:46:36;1.30;;;1.08;;
21272;SDS011;36726;52.328;10.552;2022-07-03T06:49:03;1.45;;;1.20;;
21272;SDS011;36726;52.328;10.552;2022-07-03T06:51:29;1.80;;;1.23;;
21272;SDS011;36726;52.328;10.552;2022-07-03T06:53:56;3.38;;;1.35;;
21272;SDS011;36726;52.328;10.552;2022-07-03T06:56:22;1.35;;;1.20;;
21272;SDS011;36726;52.328;10.552;2022-07-03T06:58:55;1.98;;;1.10;;
21272;SDS011;36726;52.328;10.552;2022-07-03T07:01:22;1.40;;;1.20;;
21272;SDS011;36726;52.328;10.552;2022-07-03T07:03:49;2.15;;;1.10;;
21272;SDS011;36726;52.328;10.552;2022-07-03T07:06:15;3.53;;;0.93;;
21272;SDS011;36726;52.328;10.552;2022-07-03T07:08:42;1.40;;;1.30;;
21272;SDS011;36726;52.328;10.552;2022-07-03T07:11:08;1.25;;;1.15;;
21272;SDS011;36726;52.328;10.552;2022-07-03T07:13:35;2.28;;;1.48;;
21272;SDS011;36726;52.328;10.552;2022-07-03T07:16:02;1.90;;;1.23;;
21272;SDS011;36726;52.328;10.552;2022-07-03T07:18:28;3.92;;;1.35;;
21272;SDS011;36726;52.328;10.552;2022-07-03T07:20:55;1.52;;;1.25;;
21272;SDS011;36726;52.328;10.552;2022-07-03T07:23:21;1.92;;;1.00;;
21272;SDS011;36726;52.328;10.552;2022-07-03T07:25:48;1.92;;;1.10;;
21272;SDS011;36726;52.328;10.552;2022-07-03T07:28:14;2.50;;;1.45;;
21272;SDS011;36726;52.328;10.552;2022-07-03T07:30:41;1.30;;;1.20;;
21272;SDS011;36726;52.328;10.552;2022-07-03T07:33:08;3.60;;;1.40;;
21272;SDS011;36726;52.328;10.552;2022-07-03T07:35:35;2.17;;;1.45;;
21272;SDS011;36726;52.328;10.552;2022-07-03T07:38:02;1.63;;;1.20;;
21272;SDS011;36726;52.328;10.552;2022-07-03T07:40:34;1.83;;;1.20;;
21272;SDS011;36726;52.328;10.552;2022-07-03T07:43:00;6.18;;;1.60;;
21272;SDS011;36726;52.328;10.552;2022-07-03T07:45:27;6.30;;;1.60;;
21272;SDS011;36726;52.328;10.552;2022-07-03T07:47:54;4.95;;;1.55;;
21272;SDS011;36726;52.328;10.552;2022-07-03T07:50:20;1.67;;;1.40;;
21272;SDS011;36726;52.328;10.552;2022-07-03T07:52:47;2.20;;;1.40;;
21272;SDS011;36726;52.328;10.552;2022-07-03T07:55:14;2.55;;;1.35;;
21272;SDS011;36726;52.328;10.552;2022-07-03T07:57:41;1.73;;;1.20;;
21272;SDS011;36726;52.328;10.552;2022-07-03T08:00:14;1.35;;;1.13;;
21272;SDS011;36726;52.328;10.552;2022-07-03T08:02:43;3.95;;;1.65;;
21272;SDS011;36726;52.328;10.552;2022-07-03T08:05:30;2.33;;;1.50;;
21272;SDS011;36726;52.328;10.552;2022-07-03T08:08:08;1.23;;;1.13;;
21272;SDS011;36726;52.328;10.552;2022-07-03T08:10:42;1.13;;;1.05;;
21272;SDS011;36726;52.328;10.552;2022-07-03T08:13:17;1.45;;;1.10;;
21272;SDS011;36726;52.328;10.552;2022-07-03T08:15:45;1.92;;;1.17;;
21272;SDS011;36726;52.328;10.552;2022-07-03T08:18:13;1.38;;;1.13;;
21272;SDS011;36726;52.328;10.552;2022-07-03T08:20:41;1.20;;;0.85;;
21272;SDS011;36726;52.328;10.552;2022-07-03T08:23:08;1.30;;;1.13;;
21272;SDS011;36726;52.328;10.552;2022-07-03T08:25:34;1.48;;;1.10;;
21272;SDS011;36726;52.328;10.552;2022-07-03T08:28:01;1.25;;;1.10;;
21272;SDS011;36726;52.328;10.552;2022-07-03T08:30:28;1.38;;;1.05;;
21272;SDS011;36726;52.328;10.552;2022-07-03T08:32:55;1.15;;;1.02;;
21272;SDS011;36726;52.328;10.552;2022-07-03T08:35:23;2.05;;;1.10;;
21272;SDS011;36726;52.328;10.552;2022-07-03T08:37:50;1.23;;;1.13;;
21272;SDS011;36726;52.328;10.552;2022-07-03T08:40:18;1.27;;;1.10;;
21272;SDS011;36726;52.328;10.552;2022-07-03T08:45:17;1.25;;;1.02;;
21272;SDS011;36726;52.328;10.552;2022-07-03T08:47:46;0.90;;;0.80;;
21272;SDS011;36726;52.328;10.552;2022-07-03T08:50:15;1.52;;;1.10;;
21272;SDS011;36726;52.328;10.552;2022-07-03T08:52:44;1.60;;;1.00;;
21272;SDS011;36726;52.328;10.552;2022-07-03T08:55:12;1.83;;;1.00;;
21272;SDS011;36726;52.328;10.552;2022-07-03T08:57:41;1.40;;;1.30;;
21272;SDS011;36726;52.328;10.552;2022-07-03T09:00:13;1.08;;;0.65;;
21272;SDS011;36726;52.328;10.552;2022-07-03T09:02:42;1.00;;;0.90;;
21272;SDS011;36726;52.328;10.552;2022-07-03T09:05:11;1.52;;;1.10;;
21272;SDS011;36726;52.328;10.552;2022-07-03T09:07:39;1.88;;;1.00;;
21272;SDS011;36726;52.328;10.552;2022-07-03T09:10:08;1.45;;;1.00;;
21272;SDS011;36726;52.328;10.552;2022-07-03T09:12:37;2.08;;;0.88;;
21272;SDS011;36726;52.328;10.552;2022-07-03T09:15:05;3.08;;;0.85;;
21272;SDS011;36726;52.328;10.552;2022-07-03T09:17:34;1.52;;;1.20;;
21272;SDS011;36726;52.328;10.552;2022-07-03T09:20:01;5.00;;;0.93;;
21272;SDS011;36726;52.328;10.552;2022-07-03T09:22:32;1.20;;;1.10;;
21272;SDS011;36726;52.328;10.552;2022-07-03T09:27:33;1.20;;;1.08;;
21272;SDS011;36726;52.328;10.552;2022-07-03T09:30:05;5.72;;;1.23;;
21272;SDS011;36726;52.328;10.552;2022-07-03T09:37:55;1.30;;;1.17;;
21272;SDS011;36726;52.328;10.552;2022-07-03T09:40:25;2.05;;;1.02;;
21272;SDS011;36726;52.328;10.552;2022-07-03T09:43:00;1.77;;;1.08;;
21272;SDS011;36726;52.328;10.552;2022-07-03T09:48:20;1.00;;;0.85;;
21272;SDS011;36726;52.328;10.552;2022-07-03T09:53:56;0.80;;;0.80;;
21272;SDS011;36726;52.328;10.552;2022-07-03T09:56:27;1.00;;;0.90;;
21272;SDS011;36726;52.328;10.552;2022-07-03T09:59:04;1.08;;;0.90;;
21272;SDS011;36726;52.328;10.552;2022-07-03T10:01:44;2.17;;;0.95;;
21272;SDS011;36726;52.328;10.552;2022-07-03T10:06:46;1.75;;;1.02;;
21272;SDS011;36726;52.328;10.552;2022-07-03T10:09:24;1.33;;;1.00;;
21272;SDS011;36726;52.328;10.552;2022-07-03T10:11:52;1.08;;;0.90;;
21272;SDS011;36726;52.328;10.552;2022-07-03T10:14:20;1.13;;;1.00;;
21272;SDS011;36726;52.328;10.552;2022-07-03T10:16:49;2.78;;;0.85;;
21272;SDS011;36726;52.328;10.552;2022-07-03T10:19:23;1.00;;;0.90;;
21272;SDS011;36726;52.328;10.552;2022-07-03T10:22:00;1.40;;;1.02;;
21272;SDS011;36726;52.328;10.552;2022-07-03T10:24:33;1.38;;;0.90;;
21272;SDS011;36726;52.328;10.552;2022-07-03T10:26:59;1.40;;;0.93;;
21272;SDS011;36726;52.328;10.552;2022-07-03T10:29:27;0.90;;;0.70;;
21272;SDS011;36726;52.328;10.552;2022-07-03T10:31:55;1.05;;;0.90;;
21272;SDS011;36726;52.328;10.552;2022-07-03T10:34:24;1.08;;;0.80;;
21272;SDS011;36726;52.328;10.552;2022-07-03T10:36:53;1.30;;;0.98;;
21272;SDS011;36726;52.328;10.552;2022-07-03T10:39:44;0.85;;;0.80;;
21272;SDS011;36726;52.328;10.552;2022-07-03T10:42:24;1.25;;;1.05;;
21272;SDS011;36726;52.328;10.552;2022-07-03T10:45:16;1.52;;;1.00;;
21272;SDS011;36726;52.328;10.552;2022-07-03T10:47:43;2.92;;;1.20;;
21272;SDS011;36726;52.328;10.552;2022-07-03T10:50:17;1.40;;;1.10;;
21272;SDS011;36726;52.328;10.552;2022-07-03T10:52:48;1.00;;;0.90;;
21272;SDS011;36726;52.328;10.552;2022-07-03T10:55:15;1.27;;;1.15;;
21272;SDS011;36726;52.328;10.552;2022-07-03T10:57:43;1.30;;;1.20;;
21272;SDS011;36726;52.328;10.552;2022-07-03T11:00:30;3.05;;;0.88;;
21272;SDS011;36726;52.328;10.552;2022-07-03T11:02:57;1.80;;;0.95;;
21272;SDS011;36726;52.328;10.552;2022-07-03T11:05:24;1.40;;;1.00;;
21272;SDS011;36726;52.328;10.552;2022-07-03T11:20:32;2.35;;;0.90;;
21272;SDS011;36726;52.328;10.552;2022-07-03T11:23:10;1.85;;;0.75;;
21272;SDS011;36726;52.328;10.552;2022-07-03T11:25:44;1.30;;;0.93;;
21272;SDS011;36726;52.328;10.552;2022-07-03T11:43:56;3.35;;;1.02;;
21272;SDS011;36726;52.328;10.552;2022-07-03T11:46:25;0.90;;;0.60;;
21272;SDS011;36726;52.328;10.552;2022-07-03T11:51:41;1.77;;;0.88;;
21272;SDS011;36726;52.328;10.552;2022-07-03T11:54:19;0.80;;;0.80;;
21272;SDS011;36726;52.328;10.552;2022-07-03T11:56:46;1.65;;;0.82;;
21272;SDS011;36726;52.328;10.552;2022-07-03T11:59:13;2.88;;;0.80;;
21272;SDS011;36726;52.328;10.552;2022-07-03T12:01:39;1.27;;;0.68;;
21272;SDS011;36726;52.328;10.552;2022-07-03T12:04:18;9.10;;;1.10;;
21272;SDS011;36726;52.328;10.552;2022-07-03T12:06:49;0.88;;;0.77;;
21272;SDS011;36726;52.328;10.552;2022-07-03T12:12:07;1.17;;;0.90;;
21272;SDS011;36726;52.328;10.552;2022-07-03T12:14:44;4.85;;;1.00;;
21272;SDS011;36726;52.328;10.552;2022-07-03T12:17:20;1.38;;;0.70;;
21272;SDS011;36726;52.328;10.552;2022-07-03T12:19:48;0.85;;;0.82;;
21272;SDS011;36726;52.328;10.552;2022-07-03T12:22:26;0.90;;;0.63;;
21272;SDS011;36726;52.328;10.552;2022-07-03T12:25:01;1.08;;;0.70;;
21272;SDS011;36726;52.328;10.552;2022-07-03T12:27:33;3.85;;;0.80;;
21272;SDS011;36726;52.328;10.552;2022-07-03T12:30:01;2.03;;;1.00;;
21272;SDS011;36726;52.328;10.552;2022-07-03T12:32:29;1.30;;;0.70;;
21272;SDS011;36726;52.328;10.552;2022-07-03T12:34:56;0.85;;;0.77;;
21272;SDS011;36726;52.328;10.552;2022-07-03T12:39:59;1.05;;;0.85;;
21272;SDS011;36726;52.328;10.552;2022-07-03T12:42:26;0.85;;;0.73;;
21272;SDS011;36726;52.328;10.552;2022-07-03T12:44:56;0.85;;;0.70;;
21272;SDS011;36726;52.328;10.552;2022-07-03T12:47:24;4.15;;;0.73;;
21272;SDS011;36726;52.328;10.552;2022-07-03T12:52:28;1.13;;;0.80;;
21272;SDS011;36726;52.328;10.552;2022-07-03T12:54:55;1.50;;;0.90;;
21272;SDS011;36726;52.328;10.552;2022-07-03T12:57:23;1.00;;;0.68;;
21272;SDS011;36726;52.328;10.552;2022-07-03T13:00:09;1.73;;;0.90;;
21272;SDS011;36726;52.328;10.552;2022-07-03T13:02:44;1.15;;;0.75;;
21272;SDS011;36726;52.328;10.552;2022-07-03T13:05:13;3.78;;;0.77;;
21272;SDS011;36726;52.328;10.552;2022-07-03T13:07:51;1.02;;;0.80;;
21272;SDS011;36726;52.328;10.552;2022-07-03T13:10:22;2.72;;;1.10;;
21272;SDS011;36726;52.328;10.552;2022-07-03T13:12:50;1.13;;;0.90;;
21272;SDS011;36726;52.328;10.552;2022-07-03T13:15:19;2.05;;;1.73;;
21272;SDS011;36726;52.328;10.552;2022-07-03T13:20:26;1.02;;;0.80;;
21272;SDS011;36726;52.328;10.552;2022-07-03T13:22:56;0.88;;;0.75;;
21272;SDS011;36726;52.328;10.552;2022-07-03T13:25:24;3.63;;;1.85;;
21272;SDS011;36726;52.328;10.552;2022-07-03T13:27:52;3.40;;;1.00;;
21272;SDS011;36726;52.328;10.552;2022-07-03T13:30:19;2.67;;;1.40;;
21272;SDS011;36726;52.328;10.552;2022-07-03T13:32:48;1.38;;;0.90;;
21272;SDS011;36726;52.328;10.552;2022-07-03T13:35:15;1.67;;;0.85;;
21272;SDS011;36726;52.328;10.552;2022-07-03T13:37:42;1.33;;;1.00;;
21272;SDS011;36726;52.328;10.552;2022-07-03T13:40:08;1.17;;;0.68;;
21272;SDS011;36726;52.328;10.552;2022-07-03T13:42:35;2.67;;;0.90;;
21272;SDS011;36726;52.328;10.552;2022-07-03T13:45:02;1.83;;;1.00;;
21272;SDS011;36726;52.328;10.552;2022-07-03T13:47:29;0.80;;;0.70;;
21272;SDS011;36726;52.328;10.552;2022-07-03T13:49:56;2.03;;;0.73;;
21272;SDS011;36726;52.328;10.552;2022-07-03T13:52:23;1.20;;;1.00;;
21272;SDS011;36726;52.328;10.552;2022-07-03T13:54:50;1.08;;;0.90;;
21272;SDS011;36726;52.328;10.552;2022-07-03T13:57:17;0.77;;;0.70;;
21272;SDS011;36726;52.328;10.552;2022-07-03T13:59:43;1.05;;;0.88;;
21272;SDS011;36726;52.328;10.552;2022-07-03T14:02:10;1.02;;;0.73;;
21272;SDS011;36726;52.328;10.552;2022-07-03T14:04:37;1.52;;;0.65;;
21272;SDS011;36726;52.328;10.552;2022-07-03T14:07:04;2.55;;;1.08;;
21272;SDS011;36726;52.328;10.552;2022-07-03T14:09:31;1.10;;;0.82;;
21272;SDS011;36726;52.328;10.552;2022-07-03T14:11:58;1.35;;;0.75;;
21272;SDS011;36726;52.328;10.552;2022-07-03T14:14:25;1.70;;;1.00;;
21272;SDS011;36726;52.328;10.552;2022-07-03T14:16:52;1.60;;;0.98;;
21272;SDS011;36726;52.328;10.552;2022-07-03T14:19:19;3.60;;;1.00;;
21272;SDS011;36726;52.328;10.552;2022-07-03T14:21:46;1.75;;;0.77;;
21272;SDS011;36726;52.328;10.552;2022-07-03T14:24:13;0.88;;;0.80;;
21272;SDS011;36726;52.328;10.552;2022-07-03T14:26:39;0.90;;;0.80;;
21272;SDS011;36726;52.328;10.552;2022-07-03T14:29:24;3.63;;;1.10;;
21272;SDS011;36726;52.328;10.552;2022-07-03T14:32:10;1.15;;;0.80;;
21272;SDS011;36726;52.328;10.552;2022-07-03T14:34:55;2.20;;;1.40;;
21272;SDS011;36726;52.328;10.552;2022-07-03T14:37:22;2.28;;;1.08;;
21272;SDS011;36726;52.328;10.552;2022-07-03T14:39:50;1.50;;;1.35;;
21272;SDS011;36726;52.328;10.552;2022-07-03T14:42:17;2.40;;;1.02;;
21272;SDS011;36726;52.328;10.552;2022-07-03T14:44:44;0.85;;;0.50;;
21272;SDS011;36726;52.328;10.552;2022-07-03T14:47:11;1.35;;;0.80;;
21272;SDS011;36726;52.328;10.552;2022-07-03T14:49:39;0.95;;;0.60;;
21272;SDS011;36726;52.328;10.552;2022-07-03T14:52:06;1.77;;;0.98;;
21272;SDS011;36726;52.328;10.552;2022-07-03T14:54:33;1.23;;;0.80;;
21272;SDS011;36726;52.328;10.552;2022-07-03T14:57:01;1.50;;;0.90;;
21272;SDS011;36726;52.328;10.552;2022-07-03T15:02:32;1.25;;;0.55;;
21272;SDS011;36726;52.328;10.552;2022-07-03T15:07:42;1.10;;;0.80;;
21272;SDS011;36726;52.328;10.552;2022-07-03T15:10:31;0.90;;;0.70;;
21272;SDS011;36726;52.328;10.552;2022-07-03T15:13:01;1.27;;;0.77;;
21272;SDS011;36726;52.328;10.552;2022-07-03T15:15:30;1.30;;;0.80;;
21272;SDS011;36726;52.328;10.552;2022-07-03T15:18:00;4.35;;;1.00;;
21272;SDS011;36726;52.328;10.552;2022-07-03T15:20:30;8.32;;;0.82;;
21272;SDS011;36726;52.328;10.552;2022-07-03T15:23:01;1.52;;;0.90;;
21272;SDS011;36726;52.328;10.552;2022-07-03T15:25:30;0.63;;;0.50;;
21272;SDS011;36726;52.328;10.552;2022-07-03T15:27:58;1.33;;;0.63;;
21272;SDS011;36726;52.328;10.552;2022-07-03T15:30:26;1.00;;;0.65;;
21272;SDS011;36726;52.328;10.552;2022-07-03T15:32:54;1.27;;;0.60;;
21272;SDS011;36726;52.328;10.552;2022-07-03T15:35:22;1.08;;;0.75;;
21272;SDS011;36726;52.328;10.552;2022-07-03T15:37:54;3.97;;;0.80;;
21272;SDS011;36726;52.328;10.552;2022-07-03T15:40:51;0.80;;;0.50;;
21272;SDS011;36726;52.328;10.552;2022-07-03T15:52:06;0.65;;;0.63;;
21272;SDS011;36726;52.328;10.552;2022-07-03T15:57:33;1.13;;;0.73;;
21272;SDS011;36726;52.328;10.552;2022-07-03T16:00:06;1.33;;;0.70;;
21272;SDS011;36726;52.328;10.552;2022-07-03T16:05:27;2.67;;;0.73;;
21272;SDS011;36726;52.328;10.552;2022-07-03T16:08:01;0.70;;;0.70;;
21272;SDS011;36726;52.328;10.552;2022-07-03T16:10:32;1.75;;;0.90;;
21272;SDS011;36726;52.328;10.552;2022-07-03T16:12:59;1.40;;;0.80;;
21272;SDS011;36726;52.328;10.552;2022-07-03T16:15:30;1.10;;;0.80;;
21272;SDS011;36726;52.328;10.552;2022-07-03T16:17:57;1.08;;;0.70;;
21272;SDS011;36726;52.328;10.552;2022-07-03T16:20:25;2.15;;;0.85;;
21272;SDS011;36726;52.328;10.552;2022-07-03T16:22:55;1.08;;;0.80;;
21272;SDS011;36726;52.328;10.552;2022-07-03T16:25:25;1.15;;;0.90;;
21272;SDS011;36726;52.328;10.552;2022-07-03T16:27:52;1.80;;;0.80;;
21272;SDS011;36726;52.328;10.552;2022-07-03T16:30:18;1.92;;;0.90;;
21272;SDS011;36726;52.328;10.552;2022-07-03T16:32:45;3.70;;;0.80;;
21272;SDS011;36726;52.328;10.552;2022-07-03T16:37:44;1.17;;;1.08;;
21272;SDS011;36726;52.328;10.552;2022-07-03T16:40:14;1.80;;;0.70;;
21272;SDS011;36726;52.328;10.552;2022-07-03T16:42:45;2.40;;;0.80;;
21272;SDS011;36726;52.328;10.552;2022-07-03T16:45:13;0.93;;;0.60;;